Terminal Aerodrome Forecast
Issued by NWS

Home | Current Version | Previous Version | Text Only | Print | Product List | Glossary On
Versions: 1 2 3 4 5 6 7 8 9 10 11 12 13 14 15
000
FTUS41 KBGM 052329
TAFRME
TAF
KRME 052329Z 0600/0624 31005KT P6SM BKN250
     FM060100 VRB03KT P6SM BKN100
     FM061300 11004KT P6SM SCT200=

USA.gov is the U.S. government's official web portal to all federal, state and local government web resources and services.